Time,TemperatureF,DewpointF,PressureIn,WindDirection,WindDirectionDegrees,WindSpeedMPH,WindSpeedGustMPH,Humidity,HourlyPrecipIn,Conditions,Clouds,dailyrainin,SoftwareType,DateUTC
2013-09-29 00:03:00,50.0,49.0,-100.00,SW,230,2.0,6.0,97,-99.99,,,-99.99,,2013-09-29 05:03:00,
2013-09-29 00:11:00,49.0,48.0,-100.00,SW,235,2.0,4.0,97,-99.99,,,-99.99,,2013-09-29 05:11:00,
2013-09-29 00:43:00,49.0,48.0,-100.00,SW,235,2.0,4.0,97,-99.99,,,-99.99,,2013-09-29 05:43:00,
2013-09-29 00:53:00,49.0,48.0,-100.00,SW,235,2.0,4.0,97,-99.99,,,-99.99,,2013-09-29 05:53:00,
2013-09-29 01:03:00,49.0,48.0,-100.00,SW,235,2.0,4.0,97,-99.99,,,-99.99,,2013-09-29 06:03:00,
2013-09-29 01:42:00,48.0,48.0,-100.00,WSW,255,3.0,6.0,98,-99.99,,,-99.99,,2013-09-29 06:42:00,
2013-09-29 01:52:00,48.0,48.0,-100.00,WSW,255,3.0,6.0,98,-99.99,,,-99.99,,2013-09-29 06:52:00,
2013-09-29 02:02:00,48.0,48.0,-100.00,WSW,255,3.0,6.0,98,-99.99,,,-99.99,,2013-09-29 07:02:00,
2013-09-29 02:43:00,47.0,46.0,-100.00,West,265,3.0,5.0,98,-99.99,,,-99.99,,2013-09-29 07:43:00,
2013-09-29 02:52:00,47.0,46.0,-100.00,West,265,3.0,5.0,98,-99.99,,,-99.99,,2013-09-29 07:52:00,
2013-09-29 03:02:00,47.0,46.0,-100.00,West,265,3.0,5.0,98,-99.99,,,-99.99,,2013-09-29 08:02:00,
2013-09-29 03:42:00,43.0,43.0,-100.00,SW,215,0.0,2.0,98,-99.99,,,-99.99,,2013-09-29 08:42:00,
2013-09-29 03:52:00,43.0,43.0,-100.00,SW,215,0.0,2.0,98,-99.99,,,-99.99,,2013-09-29 08:52:00,
2013-09-29 04:02:00,43.0,43.0,-100.00,SW,215,0.0,2.0,98,-99.99,,,-99.99,,2013-09-29 09:02:00,
2013-09-29 04:43:00,40.0,40.0,-100.00,SSW,210,0.0,0.0,98,-99.99,,,-99.99,,2013-09-29 09:43:00,
2013-09-29 04:54:00,40.0,40.0,-100.00,SSW,210,0.0,0.0,98,-99.99,,,-99.99,,2013-09-29 09:54:00,
2013-09-29 05:03:00,40.0,40.0,-100.00,SSW,210,0.0,0.0,98,-99.99,,,-99.99,,2013-09-29 10:03:00,
2013-09-29 05:43:00,40.0,39.0,-100.00,SSW,210,0.0,0.0,98,-99.99,,,-99.99,,2013-09-29 10:43:00,
2013-09-29 05:53:00,40.0,39.0,-100.00,SSW,210,0.0,0.0,98,-99.99,,,-99.99,,2013-09-29 10:53:00,
2013-09-29 06:03:00,40.0,39.0,-100.00,SSW,210,0.0,0.0,98,-99.99,,,-99.99,,2013-09-29 11:03:00,
2013-09-29 06:10:00,39.0,38.0,-100.00,SSW,210,0.0,0.0,98,-99.99,,,-99.99,,2013-09-29 11:10:00,
2013-09-29 06:42:00,39.0,38.0,-100.00,SSW,210,0.0,0.0,98,-99.99,,,-99.99,,2013-09-29 11:42:00,
2013-09-29 06:52:00,39.0,38.0,-100.00,SSW,210,0.0,0.0,98,-99.99,,,-99.99,,2013-09-29 11:52:00,
2013-09-29 07:01:00,39.0,38.0,-100.00,SSW,210,0.0,0.0,98,-99.99,,,-99.99,,2013-09-29 12:01:00,
2013-09-29 08:42:00,44.0,44.0,-100.00,SSE,150,0.0,0.0,98,-99.99,,,-99.99,,2013-09-29 13:42:00,
2013-09-29 08:53:00,44.0,44.0,-100.00,SSE,150,0.0,0.0,98,-99.99,,,-99.99,,2013-09-29 13:53:00,
2013-09-29 09:02:00,44.0,44.0,-100.00,SSE,150,0.0,0.0,98,-99.99,,,-99.99,,2013-09-29 14:02:00,
2013-09-29 09:43:00,50.0,49.0,-100.00,SSE,155,1.0,3.0,98,-99.99,,,-99.99,,2013-09-29 14:43:00,
2013-09-29 09:52:00,50.0,49.0,-100.00,SSE,155,1.0,3.0,98,-99.99,,,-99.99,,2013-09-29 14:52:00,
2013-09-29 10:02:00,50.0,49.0,-100.00,SSE,155,1.0,3.0,98,-99.99,,,-99.99,,2013-09-29 15:02:00,
2013-09-29 10:45:00,56.0,55.0,-100.00,SW,215,4.0,9.0,97,-99.99,,,-99.99,,2013-09-29 15:45:00,
2013-09-29 10:55:00,56.0,55.0,-100.00,SW,215,4.0,9.0,97,-99.99,,,-99.99,,2013-09-29 15:55:00,
2013-09-29 11:05:00,56.0,55.0,-100.00,SW,215,4.0,9.0,97,-99.99,,,-99.99,,2013-09-29 16:05:00,
2013-09-29 11:44:00,62.0,47.0,-100.00,SSW,210,7.0,12.0,57,-99.99,,,-99.99,,2013-09-29 16:44:00,
2013-09-29 11:54:00,62.0,47.0,-100.00,SSW,210,7.0,12.0,57,-99.99,,,-99.99,,2013-09-29 16:54:00,
2013-09-29 12:03:00,62.0,47.0,-100.00,SSW,210,7.0,12.0,57,-99.99,,,-99.99,,2013-09-29 17:03:00,
2013-09-29 13:10:00,69.0,38.0,-100.00,South,180,9.0,15.0,33,-99.99,,,-99.99,,2013-09-29 18:10:00,
2013-09-29 13:42:00,69.0,38.0,-100.00,South,180,9.0,15.0,33,-99.99,,,-99.99,,2013-09-29 18:42:00,
2013-09-29 13:52:00,69.0,38.0,-100.00,South,180,9.0,15.0,33,-99.99,,,-99.99,,2013-09-29 18:52:00,
2013-09-29 14:02:00,69.0,38.0,-100.00,South,180,9.0,15.0,33,-99.99,,,-99.99,,2013-09-29 19:02:00,
2013-09-29 14:11:00,70.0,38.0,-100.00,WSW,240,7.0,13.0,31,-99.99,,,-99.99,,2013-09-29 19:11:00,
2013-09-29 14:42:00,70.0,38.0,-100.00,WSW,240,7.0,13.0,31,-99.99,,,-99.99,,2013-09-29 19:42:00,
2013-09-29 14:52:00,70.0,38.0,-100.00,WSW,240,7.0,13.0,31,-99.99,,,-99.99,,2013-09-29 19:52:00,
2013-09-29 15:02:00,70.0,38.0,-100.00,WSW,240,7.0,13.0,31,-99.99,,,-99.99,,2013-09-29 20:02:00,
2013-09-29 15:43:00,71.0,38.0,-100.00,South,190,9.0,15.0,31,-99.99,,,-99.99,,2013-09-29 20:43:00,
2013-09-29 15:52:00,71.0,38.0,-100.00,South,190,9.0,15.0,31,-99.99,,,-99.99,,2013-09-29 20:52:00,
2013-09-29 16:02:00,71.0,38.0,-100.00,South,190,9.0,15.0,31,-99.99,,,-99.99,,2013-09-29 21:02:00,
2013-09-29 16:10:00,71.0,38.0,-100.00,South,190,9.0,18.0,31,-99.99,,,-99.99,,2013-09-29 21:10:00,
2013-09-29 16:44:00,71.0,38.0,-100.00,South,190,9.0,18.0,31,-99.99,,,-99.99,,2013-09-29 21:44:00,
2013-09-29 16:55:00,71.0,38.0,-100.00,South,190,9.0,18.0,31,-99.99,,,-99.99,,2013-09-29 21:55:00,
2013-09-29 17:04:00,71.0,38.0,-100.00,South,190,9.0,18.0,31,-99.99,,,-99.99,,2013-09-29 22:04:00,
2013-09-29 17:10:00,69.0,38.0,-100.00,South,185,8.0,14.0,32,-99.99,,,-99.99,,2013-09-29 22:10:00,
2013-09-29 17:43:00,69.0,38.0,-100.00,South,185,8.0,14.0,32,-99.99,,,-99.99,,2013-09-29 22:43:00,
2013-09-29 17:53:00,69.0,38.0,-100.00,South,185,8.0,14.0,32,-99.99,,,-99.99,,2013-09-29 22:53:00,
2013-09-29 18:03:00,69.0,38.0,-100.00,South,185,8.0,14.0,32,-99.99,,,-99.99,,2013-09-29 23:03:00,
2013-09-29 18:43:00,67.0,39.0,-100.00,South,180,6.0,11.0,36,-99.99,,,-99.99,,2013-09-29 23:43:00,
2013-09-29 18:53:00,67.0,39.0,-100.00,South,180,6.0,11.0,36,-99.99,,,-99.99,,2013-09-29 23:53:00,
2013-09-29 19:02:00,67.0,39.0,-100.00,South,180,6.0,11.0,36,-99.99,,,-99.99,,2013-09-30 00:02:00,
2013-09-29 19:42:00,57.0,43.0,-100.00,SE,145,1.0,4.0,58,-99.99,,,-99.99,,2013-09-30 00:42:00,
2013-09-29 19:52:00,57.0,43.0,-100.00,SE,145,1.0,4.0,58,-99.99,,,-99.99,,2013-09-30 00:52:00,
2013-09-29 20:02:00,57.0,43.0,-100.00,SE,145,1.0,4.0,58,-99.99,,,-99.99,,2013-09-30 01:02:00,
2013-09-29 20:52:00,52.0,48.0,-100.00,SSE,165,1.0,2.0,86,-99.99,,,-99.99,,2013-09-30 01:52:00,
2013-09-29 21:02:00,52.0,48.0,-100.00,SSE,165,1.0,2.0,86,-99.99,,,-99.99,,2013-09-30 02:02:00,
2013-09-29 21:42:00,49.0,47.0,-100.00,SSE,155,0.0,2.0,92,-99.99,,,-99.99,,2013-09-30 02:42:00,
2013-09-29 21:52:00,49.0,47.0,-100.00,SSE,155,0.0,2.0,92,-99.99,,,-99.99,,2013-09-30 02:52:00,
2013-09-29 22:02:00,49.0,47.0,-100.00,SSE,155,0.0,2.0,92,-99.99,,,-99.99,,2013-09-30 03:02:00,
2013-09-29 22:45:00,47.0,45.0,-100.00,SSE,150,1.0,2.0,94,-99.99,,,-99.99,,2013-09-30 03:45:00,
2013-09-29 22:55:00,47.0,45.0,-100.00,SSE,150,1.0,2.0,94,-99.99,,,-99.99,,2013-09-30 03:55:00,
2013-09-29 23:04:00,47.0,45.0,-100.00,SSE,150,1.0,2.0,94,-99.99,,,-99.99,,2013-09-30 04:04:00,
2013-09-29 23:44:00,47.0,46.0,-100.00,SSE,155,0.0,3.0,96,-99.99,,,-99.99,,2013-09-30 04:44:00,
2013-09-29 23:53:00,47.0,46.0,-100.00,SSE,155,0.0,3.0,96,-99.99,,,-99.99,,2013-09-30 04:53:00,